Time;durP1;ratioP1;P1;durP2;ratioP2;P2;SDS_P1;SDS_P2;PMS_P1;PMS_P2;Temp;Humidity;BMP_temperature;BMP_pressure;BME280_temperature;BME280_humidity;BME280_pressure;Samples;Min_cycle;Max_cycle;Signal;HPM_P1;HPM_P2
2023/12/11 00:01:11;;;;;;;4.90;2.63;;;;;;;24.93;33.34;98579.38;4988520;28;20026;-47
2023/12/11 00:03:36;;;;;;;5.00;2.70;;;;;;;24.92;33.17;98574.38;4983401;28;20023;-47
2023/12/11 00:06:02;;;;;;;4.97;2.58;;;;;;;24.93;33.31;98576.63;4989800;28;20031;-47
2023/12/11 00:08:27;;;;;;;4.95;2.70;;;;;;;24.93;33.56;98581.41;4990345;28;20018;-48
2023/12/11 00:10:52;;;;;;;4.85;2.60;;;;;;;24.91;33.86;98595.72;4995785;28;20040;-46
2023/12/11 00:13:18;;;;;;;5.60;2.80;;;;;;;24.92;33.37;98585.44;4990297;28;20068;-47
2023/12/11 00:15:43;;;;;;;4.70;2.40;;;;;;;24.93;33.49;98582.16;4983478;28;20029;-47
2023/12/11 00:18:08;;;;;;;5.03;2.40;;;;;;;24.93;33.54;98579.38;4989761;28;20030;-46
2023/12/11 00:20:34;;;;;;;4.68;2.30;;;;;;;24.91;33.56;98568.13;4988201;28;20079;-47
2023/12/11 00:22:59;;;;;;;4.30;2.10;;;;;;;24.92;33.34;98577.16;4995505;28;20030;-47
2023/12/11 00:25:26;;;;;;;4.57;2.13;;;;;;;24.93;33.44;98568.34;4995031;28;20618;-47
2023/12/11 00:27:52;;;;;;;4.38;2.05;;;;;;;24.90;33.64;98587.94;4988531;28;20018;-47
2023/12/11 00:30:17;;;;;;;4.38;2.20;;;;;;;24.91;33.53;98590.19;4990558;28;20429;-46
2023/12/11 00:32:43;;;;;;;4.40;2.10;;;;;;;24.92;33.54;98586.16;4991287;28;20317;-47
2023/12/11 00:35:08;;;;;;;4.20;2.03;;;;;;;24.90;33.48;98599.00;4990818;28;20026;-47
2023/12/11 00:37:34;;;;;;;4.50;2.30;;;;;;;24.91;33.47;98612.28;4997361;28;20030;-47
2023/12/11 00:39:59;;;;;;;4.10;1.90;;;;;;;24.92;33.61;98619.28;4985175;28;20478;-46
2023/12/11 00:42:24;;;;;;;4.72;2.38;;;;;;;24.92;33.53;98624.06;4986827;28;20030;-47
2023/12/11 00:44:50;;;;;;;4.20;2.00;;;;;;;24.92;33.47;98605.50;5007611;28;20540;-46
2023/12/11 00:47:15;;;;;;;4.20;2.10;;;;;;;24.90;33.57;98602.50;4996696;28;20021;-47
2023/12/11 00:49:40;;;;;;;4.15;2.10;;;;;;;24.90;33.70;98621.81;4990228;28;20027;-47
2023/12/11 00:52:06;;;;;;;4.38;2.13;;;;;;;24.90;33.60;98615.56;4986422;28;20084;-46
2023/12/11 00:54:31;;;;;;;4.00;1.80;;;;;;;24.89;33.52;98608.53;5002514;28;20030;-46
2023/12/11 00:56:57;;;;;;;4.60;2.10;;;;;;;24.88;33.59;98599.50;4993678;28;20029;-46
2023/12/11 00:59:22;;;;;;;3.67;1.90;;;;;;;24.91;33.67;98600.50;4992215;28;20536;-47
2023/12/11 01:01:48;;;;;;;4.20;1.90;;;;;;;24.90;33.57;98599.00;4998556;28;20029;-46
2023/12/11 01:04:13;;;;;;;3.75;1.70;;;;;;;24.90;33.57;98604.50;4988849;28;20509;-47
2023/12/11 01:06:39;;;;;;;3.80;1.80;;;;;;;24.88;33.63;98613.31;4989564;28;20023;-49
2023/12/11 01:09:04;;;;;;;3.70;1.90;;;;;;;24.90;33.56;98618.31;4991409;28;20029;-46
2023/12/11 01:11:29;;;;;;;3.95;1.83;;;;;;;24.89;33.73;98608.53;4989844;28;20026;-47
2023/12/11 01:13:55;;;;;;;3.97;1.80;;;;;;;24.90;33.49;98599.75;4990306;28;20022;-47
2023/12/11 01:16:20;;;;;;;3.70;1.65;;;;;;;24.89;33.68;98594.72;4985389;28;20038;-46
2023/12/11 01:18:46;;;;;;;3.55;1.73;;;;;;;24.91;33.57;98587.44;4985186;28;20037;-47
2023/12/11 01:21:11;;;;;;;3.70;1.50;;;;;;;24.91;33.70;98587.44;4995006;28;20117;-48
2023/12/11 01:23:36;;;;;;;3.75;1.70;;;;;;;24.92;33.72;98599.22;4997763;28;20543;-46
2023/12/11 01:26:02;;;;;;;3.60;1.63;;;;;;;24.89;33.63;98601.00;4994293;28;20073;-47
2023/12/11 01:28:27;;;;;;;2.92;1.48;;;;;;;24.93;33.69;98607.00;4988657;28;20022;-47
2023/12/11 01:30:52;;;;;;;3.90;1.63;;;;;;;24.91;33.58;98595.72;4988198;28;20488;-48
2023/12/11 01:33:18;;;;;;;3.88;1.75;;;;;;;24.92;33.58;98599.22;4989157;28;20022;-46
2023/12/11 01:35:43;;;;;;;3.75;1.55;;;;;;;24.92;33.50;98601.97;4995651;28;20113;-46
2023/12/11 01:38:08;;;;;;;3.47;1.60;;;;;;;24.89;33.83;98595.47;4993829;28;20034;-46
2023/12/11 01:40:34;;;;;;;4.00;1.60;;;;;;;24.92;33.54;98577.16;4987456;28;20080;-46
2023/12/11 01:43:28;;;;;;;3.42;1.63;;;;;;;24.92;33.64;98588.19;4985767;28;20405;-46
2023/12/11 01:46:01;;;;;;;3.67;1.70;;;;;;;24.88;33.82;98577.44;5000054;28;20069;-47
2023/12/11 01:48:27;;;;;;;3.75;1.63;;;;;;;24.89;33.64;98576.16;4991677;28;20018;-47
2023/12/11 01:50:52;;;;;;;3.63;1.60;;;;;;;24.87;33.55;98575.94;4994815;28;20037;-46
2023/12/11 01:53:18;;;;;;;3.75;1.65;;;;;;;24.87;33.56;98564.88;4991492;28;20031;-47
2023/12/11 01:55:43;;;;;;;3.13;1.40;;;;;;;24.87;33.68;98573.16;4992058;28;20393;-47
2023/12/11 01:58:08;;;;;;;3.10;1.50;;;;;;;24.91;33.63;98572.88;4980289;28;20041;-47
2023/12/11 02:00:34;;;;;;;2.90;1.40;;;;;;;24.88;33.84;98569.16;4989905;28;20485;-47
2023/12/11 02:02:59;;;;;;;3.10;1.38;;;;;;;24.89;33.63;98562.34;4994851;28;20026;-46
2023/12/11 02:05:24;;;;;;;3.55;1.50;;;;;;;24.90;33.68;98560.34;4992008;28;20470;-46
2023/12/11 02:07:50;;;;;;;3.65;1.55;;;;;;;24.91;33.72;98572.88;4992435;28;20022;-49
2023/12/11 02:10:15;;;;;;;3.50;1.30;;;;;;;24.89;33.77;98570.63;4995194;28;20029;-50
2023/12/11 02:12:41;;;;;;;3.72;1.50;;;;;;;24.90;33.58;98576.91;4998232;28;20026;-48
2023/12/11 02:15:07;;;;;;;3.05;1.30;;;;;;;24.91;33.76;98575.66;4998357;28;20023;-47
2023/12/11 02:17:32;;;;;;;3.13;1.40;;;;;;;24.90;33.63;98577.66;4990949;28;20048;-46
2023/12/11 02:19:57;;;;;;;2.75;1.30;;;;;;;24.90;33.75;98571.38;4992145;28;20040;-47
2023/12/11 02:22:24;;;;;;;3.15;1.40;;;;;;;24.88;33.88;98573.91;4994427;28;20027;-47
2023/12/11 02:24:51;;;;;;;3.00;1.40;;;;;;;24.90;33.87;98576.91;4996031;28;20036;-46
2023/12/11 02:27:16;;;;;;;3.25;1.30;;;;;;;24.90;33.80;98574.91;4997914;28;20022;-46
2023/12/11 02:29:42;;;;;;;2.40;1.15;;;;;;;24.94;33.66;98575.38;4992253;28;20039;-48
2023/12/11 02:32:07;;;;;;;3.08;1.42;;;;;;;24.93;33.67;98571.09;4989548;28;20034;-49
2023/12/11 02:34:33;;;;;;;3.22;1.30;;;;;;;24.91;33.81;98576.41;4994494;28;20025;-47
2023/12/11 02:36:58;;;;;;;2.63;1.20;;;;;;;24.90;33.74;98585.19;4992615;28;20024;-46
2023/12/11 02:39:23;;;;;;;2.92;1.33;;;;;;;24.93;33.81;98578.63;4992931;28;20030;-46
2023/12/11 02:41:49;;;;;;;2.65;1.27;;;;;;;24.88;33.67;98574.66;4990546;28;20034;-46
2023/12/11 02:44:14;;;;;;;2.63;1.30;;;;;;;24.88;33.84;98585.72;4989363;28;20683;-48
2023/12/11 02:46:39;;;;;;;2.97;1.33;;;;;;;24.88;33.90;98582.94;4990350;28;20034;-46
2023/12/11 02:49:05;;;;;;;2.90;1.27;;;;;;;24.89;33.69;98567.88;4995564;28;20033;-48
2023/12/11 02:51:30;;;;;;;2.20;1.15;;;;;;;24.91;33.69;98561.84;4994603;28;20429;-47
2023/12/11 02:53:55;;;;;;;2.75;1.23;;;;;;;24.88;33.68;98560.88;4992320;28;20497;-46
2023/12/11 02:56:21;;;;;;;2.17;1.10;;;;;;;24.90;33.82;98577.66;4987790;28;20022;-46
2023/12/11 02:58:46;;;;;;;2.85;1.20;;;;;;;24.89;33.86;98578.91;4990982;28;20031;-46
2023/12/11 03:01:11;;;;;;;2.20;1.10;;;;;;;24.88;33.71;98577.44;4990305;28;20079;-46
2023/12/11 03:03:37;;;;;;;2.83;1.35;;;;;;;24.89;33.71;98578.91;4999147;28;20413;-47
2023/12/11 03:06:04;;;;;;;2.50;1.30;;;;;;;24.86;33.71;98585.47;4995327;28;20025;-47
2023/12/11 03:08:29;;;;;;;2.97;1.20;;;;;;;24.87;33.99;98578.69;4990301;28;20482;-47
2023/12/11 03:10:54;;;;;;;2.70;1.20;;;;;;;24.89;33.94;98569.91;4991757;28;20380;-47
2023/12/11 03:13:20;;;;;;;2.03;1.00;;;;;;;24.90;33.83;98560.34;4995473;28;20034;-47
2023/12/11 03:15:45;;;;;;;2.63;1.08;;;;;;;24.87;33.74;98545.56;4991942;28;20604;-47
2023/12/11 03:18:10;;;;;;;2.22;1.10;;;;;;;24.90;33.87;98547.28;4996729;28;20026;-47
2023/12/11 03:20:36;;;;;;;3.25;1.30;;;;;;;24.91;33.89;98539.75;4989814;28;20022;-47
2023/12/11 03:23:01;;;;;;;2.58;1.10;;;;;;;24.88;33.99;98530.50;4987883;28;20589;-48
2023/12/11 03:25:26;;;;;;;2.60;1.10;;;;;;;24.88;33.88;98535.28;4996440;28;20022;-46
2023/12/11 03:27:52;;;;;;;1.80;1.00;;;;;;;24.87;33.75;98534.53;4998231;28;20085;-46
2023/12/11 03:30:17;;;;;;;2.20;1.02;;;;;;;24.85;33.81;98519.75;4989733;28;20022;-46
2023/12/11 03:32:43;;;;;;;1.67;0.98;;;;;;;24.88;33.75;98515.97;4992766;28;20036;-46
2023/12/11 03:35:08;;;;;;;2.53;1.10;;;;;;;24.86;33.75;98515.72;4992800;28;20018;-47
2023/12/11 03:37:34;;;;;;;2.38;1.10;;;;;;;24.86;33.97;98493.66;4997053;28;20026;-50
2023/12/11 03:39:59;;;;;;;2.42;1.10;;;;;;;24.88;33.71;98497.38;4994234;28;20022;-46
2023/12/11 03:42:24;;;;;;;2.50;1.10;;;;;;;24.90;33.88;98491.34;4995946;28;20041;-46
2023/12/11 03:44:50;;;;;;;2.28;1.00;;;;;;;24.90;33.81;98491.34;4996835;28;20477;-48
2023/12/11 03:47:15;;;;;;;2.33;1.10;;;;;;;24.90;33.83;98499.63;4992931;28;20021;-46
2023/12/11 03:49:41;;;;;;;2.33;1.02;;;;;;;24.90;33.70;98503.13;5000348;28;20026;-46
2023/12/11 03:52:06;;;;;;;1.60;0.90;;;;;;;24.88;33.84;98513.94;4993466;28;20378;-47
2023/12/11 03:54:31;;;;;;;2.15;1.10;;;;;;;24.88;33.81;98524.97;4987941;28;20030;-47
2023/12/11 03:56:57;;;;;;;2.03;1.00;;;;;;;24.89;33.80;98543.03;5002646;28;20027;-47
2023/12/11 03:59:22;;;;;;;1.88;1.00;;;;;;;24.88;33.96;98552.59;4989678;28;20385;-47
2023/12/11 04:01:48;;;;;;;1.80;0.98;;;;;;;24.88;33.81;98532.53;4994764;28;20084;-48
2023/12/11 04:04:13;;;;;;;1.65;1.00;;;;;;;24.88;34.02;98527.00;4990065;28;20060;-49
2023/12/11 04:06:38;;;;;;;1.55;0.90;;;;;;;24.89;33.80;98532.00;4989120;28;20030;-48
2023/12/11 04:09:07;;;;;;;1.90;1.00;;;;;;;24.88;33.92;98540.78;4988908;28;20619;-47
2023/12/11 04:11:34;;;;;;;1.98;0.95;;;;;;;24.89;33.96;98551.31;4983633;28;20038;-52
2023/12/11 04:13:59;;;;;;;2.03;1.00;;;;;;;24.90;33.82;98561.09;4984079;28;20019;-49
2023/12/11 04:16:24;;;;;;;1.95;0.98;;;;;;;24.92;33.75;98558.56;4994411;28;20022;-49
2023/12/11 04:18:50;;;;;;;2.22;1.13;;;;;;;24.88;33.92;98547.06;4994510;28;20458;-48
2023/12/11 04:21:15;;;;;;;1.98;0.95;;;;;;;24.90;33.82;98539.00;4990415;28;20022;-49
2023/12/11 04:23:40;;;;;;;2.00;1.00;;;;;;;24.88;33.90;98544.31;4985651;28;20038;-48
2023/12/11 04:26:06;;;;;;;2.28;1.00;;;;;;;24.89;33.93;98542.28;4989143;28;20032;-50
2023/12/11 04:28:31;;;;;;;1.20;0.85;;;;;;;24.88;33.77;98551.84;4991294;28;20731;-47
2023/12/11 04:30:57;;;;;;;1.50;0.95;;;;;;;24.89;33.96;98547.81;4991450;28;20374;-51
2023/12/11 04:33:22;;;;;;;1.45;0.70;;;;;;;24.90;34.04;98543.78;4988966;28;20033;-48
2023/12/11 04:35:48;;;;;;;3.22;0.98;;;;;;;24.87;34.23;98534.53;4988987;28;20026;-49
2023/12/11 04:38:13;;;;;;;1.92;0.90;;;;;;;24.86;34.20;98527.50;4988524;28;20486;-48
2023/12/11 04:40:38;;;;;;;1.23;0.80;;;;;;;24.84;34.37;98512.72;4988721;28;20026;-49
2023/12/11 04:43:04;;;;;;;1.42;0.80;;;;;;;24.82;34.28;98496.69;4990528;28;20030;-49
2023/12/11 04:45:29;;;;;;;1.55;0.80;;;;;;;24.79;34.37;98492.22;4989228;28;20029;-48
2023/12/11 04:47:55;;;;;;;2.70;0.95;;;;;;;24.82;34.27;98509.75;4987325;28;20065;-47
2023/12/11 04:50:20;;;;;;;5.50;1.52;;;;;;;24.80;34.34;98504.75;4987299;28;20023;-49
2023/12/11 04:52:45;;;;;;;1.80;0.85;;;;;;;24.81;34.53;98497.22;4987458;28;20034;-46
2023/12/11 04:55:11;;;;;;;2.60;1.00;;;;;;;24.79;34.61;98494.97;4996398;28;20030;-48
2023/12/11 04:57:36;;;;;;;4.43;1.00;;;;;;;24.80;34.80;98501.25;4991771;28;20135;-51
2023/12/11 05:00:02;;;;;;;2.78;1.00;;;;;;;24.80;34.82;98501.97;4990707;28;20026;-49
2023/12/11 05:02:27;;;;;;;2.03;0.90;;;;;;;24.81;34.78;98492.44;4989923;28;20061;-48
2023/12/11 05:04:52;;;;;;;1.75;0.68;;;;;;;24.83;34.62;98495.44;4990264;28;20022;-52
2023/12/11 05:07:18;;;;;;;3.10;0.90;;;;;;;24.82;34.71;98493.94;4991869;28;20029;-50
2023/12/11 05:09:43;;;;;;;2.38;0.93;;;;;;;24.81;34.91;98484.16;4991627;28;20030;-48
2023/12/11 05:12:08;;;;;;;2.33;0.90;;;;;;;24.81;34.65;98481.41;4990641;28;20019;-49
2023/12/11 05:14:34;;;;;;;2.33;0.98;;;;;;;24.82;34.73;98482.91;4986267;28;20022;-49
2023/12/11 05:16:59;;;;;;;1.75;0.90;;;;;;;24.82;34.67;98460.06;4981908;28;20026;-50
2023/12/11 05:19:25;;;;;;;2.35;0.93;;;;;;;24.81;34.73;98466.84;4989734;28;20080;-49
2023/12/11 05:21:51;;;;;;;3.05;1.00;;;;;;;24.80;34.78;98463.34;4991595;28;20067;-49
2023/12/11 05:24:16;;;;;;;2.55;0.90;;;;;;;24.81;34.69;98486.91;4990591;28;20118;-48
2023/12/11 05:26:41;;;;;;;3.75;0.98;;;;;;;24.83;34.74;98473.34;4986596;28;20027;-51
2023/12/11 05:29:07;;;;;;;2.17;0.73;;;;;;;24.81;34.66;98475.13;4987646;28;20018;-48
2023/12/11 05:31:32;;;;;;;1.77;0.80;;;;;;;24.80;34.89;98485.44;4991590;28;20899;-48
2023/12/11 05:33:58;;;;;;;1.63;0.90;;;;;;;24.82;34.65;98499.44;4987856;28;20030;-48
2023/12/11 05:36:23;;;;;;;2.03;0.70;;;;;;;24.83;34.60;98512.00;4988238;28;20026;-47
2023/12/11 05:38:48;;;;;;;3.03;1.00;;;;;;;24.83;34.53;98487.16;4986649;28;20401;-48
2023/12/11 05:41:14;;;;;;;2.33;0.60;;;;;;;24.86;34.53;98477.84;4986465;28;20076;-48
2023/12/11 05:43:39;;;;;;;2.30;0.98;;;;;;;24.85;34.70;98481.84;4993773;28;20022;-49
2023/12/11 05:46:06;;;;;;;1.10;0.75;;;;;;;24.81;34.62;98483.41;4990556;28;20035;-48
2023/12/11 05:48:31;;;;;;;2.00;0.90;;;;;;;24.80;34.62;98479.91;4992450;28;20015;-53
2023/12/11 05:50:56;;;;;;;3.33;0.90;;;;;;;24.84;34.70;98472.09;4987371;28;20040;-45
2023/12/11 05:53:22;;;;;;;2.80;0.90;;;;;;;24.88;34.79;98480.81;4983058;28;20027;-48
2023/12/11 05:55:47;;;;;;;7.28;1.08;;;;;;;24.89;34.91;98481.56;4989377;28;20026;-47
2023/12/11 05:58:13;;;;;;;2.08;0.90;;;;;;;24.92;35.25;98486.06;4987684;28;20080;-41
2023/12/11 06:00:38;;;;;;;5.03;1.00;;;;;;;24.95;35.04;98474.75;4989999;28;20366;-44
2023/12/11 06:03:03;;;;;;;2.22;0.82;;;;;;;24.95;34.80;98460.94;4986092;28;20157;-44
2023/12/11 06:05:29;;;;;;;1.50;0.80;;;;;;;24.95;34.79;98468.47;4988430;28;20089;-42
2023/12/11 06:07:54;;;;;;;4.15;1.00;;;;;;;24.99;35.04;98477.19;4989327;28;20026;-45
2023/12/11 06:10:19;;;;;;;6.15;0.90;;;;;;;24.98;35.18;98464.69;4990821;28;20036;-42
2023/12/11 06:12:45;;;;;;;5.40;1.05;;;;;;;24.97;35.00;98461.19;4995954;28;20029;-43
2023/12/11 06:15:11;;;;;;;4.03;1.10;;;;;;;24.98;35.10;98457.13;4996196;28;20440;-44
2023/12/11 06:17:36;;;;;;;3.38;1.00;;;;;;;24.95;35.21;98458.19;4990942;28;20368;-46
2023/12/11 06:20:03;;;;;;;2.70;0.80;;;;;;;24.96;35.26;98445.88;4994188;28;20021;-44
2023/12/11 06:22:28;;;;;;;4.93;1.20;;;;;;;24.97;35.10;98430.81;4995442;28;20022;-44
2023/12/11 06:24:54;;;;;;;2.47;1.02;;;;;;;24.97;35.19;98417.00;4993723;28;20388;-46
2023/12/11 06:27:19;;;;;;;3.65;1.20;;;;;;;24.98;35.15;98418.47;5001566;28;20014;-43
2023/12/11 06:29:45;;;;;;;2.03;1.00;;;;;;;25.02;35.06;98420.94;4991876;28;20030;-49
2023/12/11 06:32:10;;;;;;;4.53;1.10;;;;;;;25.01;35.11;98434.00;4991862;28;20030;-43
2023/12/11 06:34:35;;;;;;;2.85;1.13;;;;;;;25.04;34.95;98438.47;4994589;28;20418;-42
2023/12/11 06:37:01;;;;;;;3.13;1.27;;;;;;;25.01;34.91;98417.44;4987922;28;20037;-44
2023/12/11 06:39:26;;;;;;;2.75;1.00;;;;;;;25.04;34.96;98410.88;4990501;28;20609;-42
2023/12/11 06:41:52;;;;;;;3.70;1.00;;;;;;;25.06;34.68;98419.38;4985218;28;20032;-41
2023/12/11 06:44:18;;;;;;;2.55;0.95;;;;;;;25.03;34.79;98414.91;4997870;28;20032;-41
2023/12/11 06:46:43;;;;;;;2.88;0.98;;;;;;;25.05;34.76;98423.41;4991009;28;20121;-46
2023/12/11 06:49:08;;;;;;;3.50;1.05;;;;;;;25.04;34.87;98416.38;4991852;28;20413;-41
2023/12/11 06:51:35;;;;;;;3.40;1.00;;;;;;;25.02;34.97;98421.69;4990771;28;20026;-44
2023/12/11 06:54:00;;;;;;;2.25;0.95;;;;;;;25.01;34.67;98397.38;4985621;28;20039;-47
2023/12/11 06:56:26;;;;;;;3.13;0.98;;;;;;;24.98;35.01;98392.91;4991493;28;20053;-44
2023/12/11 06:58:52;;;;;;;1.70;0.85;;;;;;;25.00;34.79;98382.06;4992414;28;20116;-46
2023/12/11 07:01:17;;;;;;;2.83;0.90;;;;;;;24.95;34.82;98391.94;4988933;28;20018;-45
2023/12/11 07:03:44;;;;;;;2.92;1.00;;;;;;;24.98;34.78;98385.34;4991725;28;20026;-44
2023/12/11 07:06:10;;;;;;;2.40;0.95;;;;;;;25.00;34.86;98387.59;4984647;28;20031;-42
2023/12/11 07:08:36;;;;;;;3.00;1.00;;;;;;;24.98;35.05;98390.88;4988529;28;20029;-45
2023/12/11 07:11:01;;;;;;;1.98;1.10;;;;;;;24.95;34.96;98374.63;4988571;28;20035;-49
2023/12/11 07:13:26;;;;;;;3.25;1.17;;;;;;;24.95;34.85;98380.91;4995346;28;20018;-50
2023/12/11 07:15:52;;;;;;;1.58;0.95;;;;;;;24.98;34.81;98385.34;4992971;28;20496;-48
2023/12/11 07:18:18;;;;;;;2.10;0.93;;;;;;;25.00;34.96;98398.63;4984851;28;20080;-46
2023/12/11 07:20:43;;;;;;;2.78;0.80;;;;;;;25.01;35.08;98389.81;4990160;28;20129;-44
2023/12/11 07:23:10;;;;;;;1.92;0.90;;;;;;;25.01;34.79;98400.13;4991882;28;20935;-47
2023/12/11 07:25:35;;;;;;;2.72;1.00;;;;;;;25.03;34.82;98425.94;4995367;28;20038;-42
2023/12/11 07:28:01;;;;;;;2.03;1.00;;;;;;;25.05;34.89;98412.38;4993279;28;20489;-44
2023/12/11 07:30:27;;;;;;;2.00;0.95;;;;;;;25.01;35.14;98411.91;4990665;28;20041;-44
2023/12/11 07:32:52;;;;;;;2.40;0.95;;;;;;;25.04;34.79;98440.50;4986377;28;20490;-45
2023/12/11 07:35:17;;;;;;;2.53;1.00;;;;;;;25.01;34.83;98463.63;4991167;28;20034;-44
2023/12/11 07:37:43;;;;;;;2.13;0.82;;;;;;;24.99;34.92;98475.19;4997193;28;20038;-45
2023/12/11 07:40:09;;;;;;;2.30;0.93;;;;;;;25.01;34.86;98494.72;4995723;28;20034;-45
2023/12/11 07:42:35;;;;;;;2.33;1.00;;;;;;;25.00;34.91;98501.53;4989614;28;20034;-44
2023/12/11 07:45:00;;;;;;;4.10;1.15;;;;;;;24.91;35.13;98493.59;4987488;28;20173;-44
2023/12/11 07:47:26;;;;;;;3.00;1.10;;;;;;;24.89;35.09;98482.31;4991652;28;20072;-44
2023/12/11 07:49:51;;;;;;;3.67;1.20;;;;;;;24.92;35.25;98488.81;4996926;28;20029;-44
2023/12/11 07:52:16;;;;;;;3.20;1.13;;;;;;;24.91;35.31;98468.75;4996666;28;20114;-45
2023/12/11 07:54:42;;;;;;;3.55;1.15;;;;;;;24.86;35.27;98450.22;4992238;28;20038;-44
2023/12/11 07:57:07;;;;;;;3.72;1.20;;;;;;;24.82;35.20;98454.56;4991329;28;20436;-44
2023/12/11 07:59:32;;;;;;;3.05;1.10;;;;;;;24.84;35.16;98450.00;4993058;28;20025;-45
2023/12/11 08:01:58;;;;;;;2.67;1.20;;;;;;;24.87;35.22;98434.41;4990391;28;20040;-45
2023/12/11 08:04:23;;;;;;;3.05;1.10;;;;;;;24.86;35.11;98450.22;4993504;28;20482;-44
2023/12/11 08:06:50;;;;;;;3.90;1.20;;;;;;;24.88;35.03;98430.41;4986614;28;20030;-44
2023/12/11 08:09:15;;;;;;;3.83;1.23;;;;;;;24.86;35.12;98422.63;4988411;28;20026;-44
2023/12/11 08:11:40;;;;;;;2.85;1.05;;;;;;;24.83;35.03;98418.16;4995586;28;20448;-46
2023/12/11 08:14:06;;;;;;;2.92;1.08;;;;;;;24.84;35.00;98399.59;4988792;28;20038;-46
2023/12/11 08:16:31;;;;;;;5.32;1.30;;;;;;;24.83;35.15;98407.13;4992577;28;20038;-45
2023/12/11 08:18:57;;;;;;;3.05;1.10;;;;;;;24.83;35.13;98398.84;4991217;28;20030;-44
2023/12/11 08:21:23;;;;;;;2.75;1.15;;;;;;;24.84;35.18;98399.59;4985216;28;20065;-44
2023/12/11 08:23:48;;;;;;;3.13;1.20;;;;;;;24.83;35.20;98396.06;4990100;28;20034;-44
2023/12/11 08:26:18;;;;;;;2.55;1.00;;;;;;;24.84;34.93;98419.66;4997109;28;20038;-44
2023/12/11 08:28:43;;;;;;;2.78;1.20;;;;;;;24.83;34.99;98434.72;4998024;28;20018;-44
2023/12/11 08:31:09;;;;;;;2.72;1.05;;;;;;;24.82;34.95;98460.06;4990286;28;20149;-45
2023/12/11 08:33:34;;;;;;;3.58;1.20;;;;;;;24.83;35.05;98464.31;4987556;28;20045;-44
2023/12/11 08:35:59;;;;;;;2.95;1.30;;;;;;;24.84;35.03;98472.09;4990873;28;20028;-48
2023/12/11 08:38:25;;;;;;;4.30;1.30;;;;;;;24.84;35.00;98499.69;4991629;28;20398;-44
2023/12/11 08:40:51;;;;;;;3.80;1.30;;;;;;;24.79;35.18;98514.28;4995030;28;20134;-44
2023/12/11 08:43:18;;;;;;;4.32;1.42;;;;;;;24.74;35.23;98531.69;4991501;28;20030;-44
2023/12/11 08:45:44;;;;;;;3.67;1.20;;;;;;;24.68;35.30;98531.72;4986334;28;20037;-44
2023/12/11 08:48:09;;;;;;;3.40;1.48;;;;;;;24.65;35.56;98496.88;4989530;28;20033;-46
2023/12/11 08:50:35;;;;;;;3.92;1.40;;;;;;;24.64;35.15;98483.59;4994382;28;20020;-45
2023/12/11 08:53:00;;;;;;;3.40;1.20;;;;;;;24.62;35.24;98492.41;4999106;28;20131;-46
2023/12/11 08:55:29;;;;;;;2.63;1.20;;;;;;;24.61;35.38;98490.16;4995193;28;20029;-45
2023/12/11 08:57:55;;;;;;;2.45;1.08;;;;;;;24.60;35.19;98483.16;4988516;28;20069;-45
2023/12/11 09:00:20;;;;;;;3.10;1.30;;;;;;;24.61;35.12;98490.16;4991742;28;20027;-46
2023/12/11 09:02:45;;;;;;;2.33;1.10;;;;;;;24.61;35.12;98466.09;4990807;28;20737;-44
2023/12/11 09:05:11;;;;;;;3.50;1.40;;;;;;;24.60;35.10;98477.63;4988937;28;20466;-44
2023/12/11 09:07:36;;;;;;;3.72;1.45;;;;;;;24.57;35.21;98467.66;4988669;28;20025;-45
2023/12/11 09:10:02;;;;;;;4.35;1.50;;;;;;;24.50;35.07;98448.91;4986498;28;20038;-44
2023/12/11 09:12:28;;;;;;;4.18;1.42;;;;;;;24.53;35.00;98472.72;4992238;28;20134;-44
2023/12/11 09:14:53;;;;;;;2.55;1.20;;;;;;;24.54;35.06;98497.03;4998352;28;20033;-44
2023/12/11 09:17:19;;;;;;;3.33;1.30;;;;;;;24.53;35.15;98492.03;4988730;28;20030;-45
2023/12/11 09:19:44;;;;;;;3.15;1.30;;;;;;;24.41;35.17;98477.59;4987976;28;20026;-45
2023/12/11 09:22:10;;;;;;;3.63;1.40;;;;;;;24.37;35.06;98508.22;4984060;28;20072;-45
2023/12/11 09:24:36;;;;;;;4.10;1.30;;;;;;;24.33;35.14;98520.81;4992971;28;20072;-48
2023/12/11 09:27:02;;;;;;;2.53;1.30;;;;;;;24.37;35.15;98511.00;4993752;28;20022;-46
2023/12/11 09:29:27;;;;;;;3.42;1.30;;;;;;;24.33;35.17;98510.53;4991655;28;20072;-45
2023/12/11 09:31:53;;;;;;;3.17;1.42;;;;;;;24.33;35.08;98515.28;4988677;28;20030;-45
2023/12/11 09:34:19;;;;;;;3.35;1.42;;;;;;;24.36;35.07;98530.81;4983569;28;20034;-45
2023/12/11 09:36:44;;;;;;;3.30;1.38;;;;;;;24.34;35.05;98501.00;4986411;28;20416;-44
2023/12/11 09:39:10;;;;;;;2.75;1.23;;;;;;;24.33;35.12;98496.72;4993427;28;20027;-44
2023/12/11 09:41:35;;;;;;;2.53;1.30;;;;;;;24.39;35.00;98508.44;4993248;28;20037;-44
2023/12/11 09:44:01;;;;;;;3.97;1.48;;;;;;;24.46;34.95;98528.44;4992774;28;20031;-46
2023/12/11 09:46:28;;;;;;;2.88;1.20;;;;;;;24.49;34.94;98521.91;4986713;28;20475;-45
2023/12/11 09:48:53;;;;;;;4.75;1.45;;;;;;;24.46;34.99;98531.19;4968012;28;20073;-45
2023/12/11 09:51:19;;;;;;;3.60;1.40;;;;;;;24.45;35.06;98533.22;4986298;28;20552;-46
2023/12/11 09:53:44;;;;;;;3.60;1.38;;;;;;;24.41;34.78;98532.75;4993932;28;20057;-44
2023/12/11 09:56:11;;;;;;;3.10;1.40;;;;;;;24.31;35.02;98537.88;4996468;28;20026;-45
2023/12/11 09:58:36;;;;;;;4.70;1.38;;;;;;;24.34;34.95;98547.88;4981053;28;20088;-46
2023/12/11 10:01:03;;;;;;;4.53;1.30;;;;;;;24.37;34.91;98532.31;4989802;28;20426;-45
2023/12/11 10:03:28;;;;;;;3.10;1.20;;;;;;;24.37;35.30;98530.28;4992937;28;20073;-47
2023/12/11 10:05:59;;;;;;;2.90;1.27;;;;;;;24.45;35.17;98513.91;4996540;28;20285;-46
2023/12/11 10:08:25;;;;;;;3.55;1.30;;;;;;;24.29;35.29;98525.84;4994670;28;20401;-45
2023/12/11 10:11:09;;;;;;;2.38;1.15;;;;;;;24.29;35.13;98517.56;4992292;28;20034;-45
2023/12/11 10:13:35;;;;;;;3.55;1.20;;;;;;;24.37;34.99;98505.47;4993282;28;20058;-46
2023/12/11 10:16:00;;;;;;;4.35;1.20;;;;;;;24.37;35.19;98519.25;4997214;28;20041;-46
2023/12/11 10:18:26;;;;;;;2.80;1.20;;;;;;;24.37;35.07;98533.06;4991912;28;20478;-45
2023/12/11 10:20:56;;;;;;;4.28;1.50;;;;;;;24.34;35.12;98542.34;5002613;28;20026;-46
2023/12/11 10:23:22;;;;;;;4.65;1.42;;;;;;;24.34;35.18;98525.81;4992123;28;20045;-47
2023/12/11 10:25:48;;;;;;;3.92;1.20;;;;;;;24.36;35.02;98530.81;4994831;28;20058;-44
2023/12/11 10:28:15;;;;;;;5.55;1.60;;;;;;;24.32;35.20;98524.81;4996944;28;20031;-45
2023/12/11 10:30:58;;;;;;;4.45;1.70;;;;;;;24.25;35.18;98534.41;4999018;28;20657;-51
2023/12/11 10:33:24;;;;;;;2.45;1.20;;;;;;;24.29;35.01;98532.13;4993373;28;20027;-45
2023/12/11 10:35:50;;;;;;;3.30;1.30;;;;;;;24.35;35.01;98530.06;4995320;28;20033;-45
2023/12/11 10:38:23;;;;;;;4.82;1.30;;;;;;;24.36;35.03;98537.06;4992652;28;20105;-45
2023/12/11 10:40:51;;;;;;;6.18;1.60;;;;;;;24.34;35.01;98528.56;4994563;28;20022;-45
2023/12/11 10:43:16;;;;;;;2.67;1.27;;;;;;;24.27;35.01;98522.84;4989505;28;20034;-44
2023/12/11 10:45:42;;;;;;;3.13;1.30;;;;;;;24.33;34.93;98507.75;4988863;28;20121;-45
2023/12/11 10:48:07;;;;;;;2.60;1.10;;;;;;;24.39;34.82;98486.38;4989013;28;20478;-44
2023/12/11 10:50:33;;;;;;;4.88;1.50;;;;;;;24.42;34.78;98500.41;4991170;28;20042;-45
2023/12/11 10:53:00;;;;;;;3.88;1.30;;;;;;;24.42;34.88;98523.22;4994816;28;20029;-48
2023/12/11 10:55:26;;;;;;;3.17;1.40;;;;;;;24.39;34.89;98524.25;4991278;28;20054;-45
2023/12/11 10:57:51;;;;;;;3.72;1.30;;;;;;;24.44;35.03;98519.94;4993517;28;20441;-47
2023/12/11 11:00:17;;;;;;;2.67;1.30;;;;;;;24.46;35.07;98529.19;4992222;28;20027;-46
2023/12/11 11:02:43;;;;;;;3.95;1.17;;;;;;;24.44;34.71;98525.44;4971083;28;20030;-46
2023/12/11 11:05:09;;;;;;;3.50;1.30;;;;;;;24.44;34.69;98526.19;4991709;28;20049;-47
2023/12/11 11:07:35;;;;;;;4.57;1.33;;;;;;;24.46;34.74;98523.69;4988806;28;20033;-48
2023/12/11 11:10:06;;;;;;;2.47;1.10;;;;;;;24.45;34.77;98532.47;4978729;28;20034;-47
2023/12/11 11:12:43;;;;;;;3.13;1.27;;;;;;;24.46;34.88;98533.97;4974986;28;20074;-46
2023/12/11 11:15:10;;;;;;;3.70;1.17;;;;;;;24.47;34.89;98532.69;4996723;28;20499;-46
2023/12/11 11:18:05;;;;;;;5.75;1.23;;;;;;;24.51;34.78;98538.69;4991789;28;20154;-46
2023/12/11 11:20:31;;;;;;;3.13;1.20;;;;;;;24.51;34.56;98541.44;4989023;28;20072;-46
2023/12/11 11:23:18;;;;;;;2.53;1.20;;;;;;;24.51;34.68;98547.72;4653761;28;10000510;-47
2023/12/11 11:25:51;;;;;;;3.05;1.25;;;;;;;24.48;34.74;98559.03;4639759;28;10000180;-47
2023/12/11 11:28:40;;;;;;;3.60;1.20;;;;;;;24.51;34.60;98553.22;4988831;28;20099;-46